createdAt,value
2018-04-19T00:02:41.009Z,5.37
2018-04-19T00:07:44.284Z,5.53
2018-04-19T00:12:48.352Z,6.23
2018-04-19T00:17:51.623Z,4.57
2018-04-19T00:22:54.880Z,5.60
2018-04-19T00:27:58.148Z,4.73
2018-04-19T00:33:02.201Z,5.40
2018-04-19T00:38:05.460Z,4.73
2018-04-19T00:43:08.736Z,5.33
2018-04-19T00:48:11.992Z,4.70
2018-04-19T00:53:15.255Z,4.53
2018-04-19T00:58:18.539Z,5.17
2018-04-19T01:03:21.793Z,4.70
2018-04-19T01:08:25.052Z,4.33
2018-04-19T01:13:28.327Z,4.13
2018-04-19T01:18:31.869Z,3.73
2018-04-19T01:23:35.912Z,3.80
2018-04-19T01:28:39.191Z,4.47
2018-04-19T01:33:42.454Z,3.37
2018-04-19T01:38:45.716Z,3.60
2018-04-19T01:43:49.736Z,3.60
2018-04-19T01:48:52.993Z,3.33
2018-04-19T01:53:56.273Z,3.03
2018-04-19T01:59:00.302Z,3.83
2018-04-19T02:04:03.576Z,3.33
2018-04-19T02:09:06.838Z,3.97
2018-04-19T02:14:10.113Z,3.30
2018-04-19T02:19:13.399Z,2.93
2018-04-19T02:24:16.648Z,3.90
2018-04-19T02:29:19.924Z,4.00
2018-04-19T02:34:23.944Z,4.03
2018-04-19T02:39:27.977Z,4.07
2018-04-19T02:44:32.017Z,4.40
2018-04-19T02:49:36.041Z,3.60
2018-04-19T02:54:39.296Z,4.53
2018-04-19T02:59:42.581Z,3.47
2018-04-19T03:04:45.845Z,4.80
2018-04-19T03:09:49.121Z,4.00
2018-04-19T03:14:52.381Z,3.63
2018-04-19T03:19:55.784Z,3.60
2018-04-19T03:24:59.827Z,4.80
2018-04-19T03:30:03.105Z,3.27
2018-04-19T03:35:06.358Z,4.23
2018-04-19T03:40:09.613Z,4.10
2018-04-19T03:45:12.996Z,5.03
2018-04-19T03:50:16.263Z,5.10
2018-04-19T03:55:20.292Z,5.40
2018-04-19T04:00:24.321Z,4.27
2018-04-19T04:05:27.592Z,3.90
2018-04-19T04:10:30.990Z,3.77
2018-04-19T04:15:34.287Z,3.30
2018-04-19T04:20:49.325Z,3.87
2018-04-19T04:25:52.566Z,3.90
2018-04-19T04:30:55.836Z,3.60
2018-04-19T04:35:59.869Z,3.43
2018-04-19T04:41:03.146Z,3.90
2018-04-19T04:46:06.418Z,3.80
2018-04-19T04:51:09.688Z,3.63
2018-04-19T04:56:12.945Z,3.87
2018-04-19T05:01:16.219Z,4.40
2018-04-19T05:06:19.504Z,3.90
2018-04-19T05:11:22.781Z,3.87
2018-04-19T05:16:26.057Z,3.83
2018-04-19T05:21:29.356Z,4.40
2018-04-19T05:26:32.641Z,4.10
2018-04-19T05:31:36.772Z,4.30
2018-04-19T05:36:40.000Z,4.20
2018-04-19T05:41:43.276Z,5.40
2018-04-19T05:46:46.538Z,4.87
2018-04-19T05:51:49.817Z,4.30
2018-04-19T05:56:53.088Z,4.80
2018-04-19T06:01:56.377Z,4.27
2018-04-19T06:06:59.640Z,4.60
2018-04-19T06:12:02.961Z,5.30
2018-04-19T06:17:06.241Z,5.00
2018-04-19T06:22:09.550Z,4.97
2018-04-19T06:27:12.821Z,4.50
2018-04-19T06:32:16.084Z,4.47
2018-04-19T06:37:20.104Z,4.57
2018-04-19T06:42:23.382Z,4.77
2018-04-19T06:47:26.644Z,4.63
2018-04-19T06:52:30.712Z,4.93
2018-04-19T07:15:03.704Z,5.20
2018-04-19T07:20:06.967Z,6.03
2018-04-19T07:25:10.313Z,4.73
2018-04-19T07:30:14.341Z,4.80
2018-04-19T07:35:17.616Z,5.43
2018-04-19T07:40:21.649Z,4.97
2018-04-19T07:45:25.661Z,3.80
2018-04-19T07:50:28.920Z,3.40
2018-04-19T07:55:32.184Z,3.43
2018-04-19T08:00:36.216Z,3.63
2018-04-19T08:05:39.476Z,3.30
2018-04-19T08:10:42.745Z,3.63
2018-04-19T08:15:46.014Z,4.07
2018-04-19T08:20:49.278Z,3.47
2018-04-19T08:25:52.732Z,3.30
2018-04-19T08:30:55.984Z,3.60
2018-04-19T08:35:59.256Z,3.17
2018-04-19T08:41:02.520Z,3.50
2018-04-19T08:46:05.860Z,3.67
2018-04-19T08:51:09.130Z,2.87
2018-04-19T08:56:12.437Z,3.10
2018-04-19T09:01:15.696Z,3.30
2018-04-19T09:06:18.956Z,3.50
2018-04-19T09:11:22.240Z,3.47
2018-04-19T09:16:26.273Z,2.77
2018-04-19T09:21:29.548Z,2.97
2018-04-19T09:26:32.876Z,2.53
2018-04-19T09:31:36.157Z,2.40
2018-04-19T09:36:39.408Z,3.10
2018-04-19T09:41:42.677Z,2.37
2018-04-19T09:46:45.928Z,2.77
2018-04-19T09:51:49.182Z,2.40
2018-04-19T09:56:52.457Z,2.20
2018-04-19T10:02:01.508Z,2.13
2018-04-19T10:07:04.801Z,2.47
2018-04-19T10:12:08.058Z,2.27
2018-04-19T10:17:11.308Z,2.37
2018-04-19T10:22:14.568Z,2.13
2018-04-19T10:27:18.014Z,2.50
2018-04-19T10:32:21.251Z,2.30
2018-04-19T10:37:24.504Z,3.00
2018-04-19T10:42:27.788Z,2.50
2018-04-19T10:47:31.040Z,2.97
2018-04-19T10:52:35.075Z,2.20
2018-04-19T10:57:38.384Z,2.37
2018-04-19T11:02:41.635Z,2.50
2018-04-19T11:07:44.904Z,2.63
2018-04-19T11:12:48.195Z,2.53
2018-04-19T11:17:51.452Z,2.43
2018-04-19T11:22:54.724Z,2.03
2018-04-19T11:27:58.017Z,2.47
2018-04-19T11:33:02.048Z,2.03
2018-04-19T11:38:06.081Z,2.30
2018-04-19T11:43:09.345Z,2.33
2018-04-19T11:48:12.610Z,1.93
2018-04-19T11:53:15.864Z,1.93
2018-04-19T11:58:19.136Z,2.10
2018-04-19T12:03:22.391Z,1.93
2018-04-19T12:08:25.640Z,2.10
2018-04-19T12:13:28.929Z,2.27
2018-04-19T12:18:32.941Z,2.17
2018-04-19T12:23:36.202Z,1.80
2018-04-19T12:28:39.549Z,2.00
2018-04-19T12:33:42.803Z,1.73
2018-04-19T12:38:46.093Z,1.80
2018-04-19T12:43:50.127Z,2.20
2018-04-19T12:48:54.148Z,1.87
2018-04-19T12:53:58.183Z,1.97
2018-04-19T12:59:01.449Z,2.03
2018-04-19T13:04:04.734Z,1.93
2018-04-19T13:09:07.997Z,2.00
2018-04-19T13:14:12.027Z,2.00
2018-04-19T13:19:15.315Z,2.10
2018-04-19T13:24:19.906Z,1.90
2018-04-19T13:29:24.016Z,2.17
2018-04-19T13:34:27.299Z,1.93
2018-04-19T13:39:30.549Z,2.27
2018-04-19T13:44:33.813Z,2.70
2018-04-19T13:49:37.852Z,2.07
2018-04-19T13:54:41.123Z,1.97
2018-04-19T13:59:44.373Z,2.30
2018-04-19T14:04:47.661Z,1.77
2018-04-19T14:09:50.918Z,1.97
2018-04-19T14:14:54.200Z,2.00
2018-04-19T14:19:57.450Z,2.10
2018-04-19T14:25:00.711Z,2.27
2018-04-19T14:30:04.051Z,2.00
2018-04-19T14:35:07.305Z,2.43
2018-04-19T14:40:11.350Z,1.97
2018-04-19T14:45:14.620Z,2.37
2018-04-19T14:50:17.871Z,2.10
2018-04-19T14:55:21.212Z,2.00
2018-04-19T15:00:24.415Z,1.87
2018-04-19T15:05:27.696Z,1.93
2018-04-19T15:10:30.968Z,2.37
2018-04-19T15:15:34.233Z,2.40
2018-04-19T15:20:37.502Z,2.20
2018-04-19T15:25:40.840Z,2.77
2018-04-19T15:30:44.144Z,2.30
2018-04-19T15:35:47.428Z,2.23
2018-04-19T15:40:50.696Z,2.20
2018-04-19T15:45:53.982Z,2.63
2018-04-19T15:50:57.241Z,2.53
2018-04-19T15:56:00.514Z,2.83
2018-04-19T16:01:03.769Z,2.13
2018-04-19T16:06:07.813Z,2.50
2018-04-19T16:11:11.094Z,2.57
2018-04-19T16:16:14.388Z,2.23
2018-04-19T16:21:17.659Z,2.17
2018-04-19T16:26:20.934Z,2.27
2018-04-19T16:31:24.240Z,1.90
2018-04-19T16:36:28.298Z,2.80
2018-04-19T16:41:31.562Z,2.27
2018-04-19T16:46:34.840Z,2.17
2018-04-19T16:51:38.109Z,2.40
2018-04-19T16:56:41.422Z,2.30
2018-04-19T17:01:44.700Z,2.70
2018-04-19T17:06:48.040Z,2.50
2018-04-19T17:11:52.094Z,2.70
2018-04-19T17:16:56.238Z,2.23
2018-04-19T17:21:59.507Z,2.07
2018-04-19T17:27:02.762Z,2.53
2018-04-19T17:32:06.121Z,1.97
2018-04-19T17:37:10.416Z,2.47
2018-04-19T17:42:13.751Z,2.87
2018-04-19T17:47:17.027Z,2.70
2018-04-19T17:52:20.323Z,2.30
2018-04-19T17:57:23.592Z,2.57
2018-04-19T18:02:27.616Z,2.67
2018-04-19T18:07:30.891Z,2.57
2018-04-19T18:12:34.165Z,3.10
2018-04-19T18:17:37.465Z,3.80
2018-04-19T18:22:40.733Z,3.63
2018-04-19T18:27:44.838Z,3.37
2018-04-19T18:32:48.917Z,3.10
2018-04-19T18:37:52.188Z,2.67
2018-04-19T18:42:55.450Z,4.10
2018-04-19T18:47:58.750Z,3.53
2018-04-19T18:53:02.019Z,5.00
2018-04-19T18:58:06.067Z,4.47
2018-04-19T19:03:10.223Z,4.70
2018-04-19T19:08:13.980Z,4.43
2018-04-19T19:13:17.316Z,4.57
2018-04-19T19:18:33.089Z,4.10
2018-04-19T19:23:36.349Z,3.57
2018-04-19T19:28:40.412Z,3.87
2018-04-19T19:33:43.733Z,3.73
2018-04-19T19:38:46.993Z,3.40
2018-04-19T19:43:50.317Z,3.30
2018-04-19T19:48:53.622Z,3.77
2018-04-19T19:53:56.904Z,3.60
2018-04-19T19:59:00.164Z,3.20
2018-04-19T20:04:03.452Z,3.70
2018-04-19T20:09:06.739Z,3.77
2018-04-19T20:14:09.990Z,3.70
2018-04-19T20:19:13.278Z,3.30
2018-04-19T20:24:16.550Z,3.73
2018-04-19T20:29:20.581Z,3.47
2018-04-19T20:34:23.970Z,3.40
2018-04-19T20:39:28.004Z,3.50
2018-04-19T20:44:31.291Z,3.43
2018-04-19T20:49:34.568Z,3.23
2018-04-19T20:54:37.833Z,3.60
2018-04-19T20:59:41.876Z,3.80
2018-04-19T21:04:45.152Z,3.57
2018-04-19T21:09:48.430Z,3.47
2018-04-19T21:14:51.741Z,3.37
2018-04-19T21:19:55.000Z,2.87
2018-04-19T21:24:58.261Z,2.83
2018-04-19T21:30:01.521Z,2.90
2018-04-19T21:35:05.593Z,2.90
2018-04-19T21:40:08.875Z,2.67
2018-04-19T21:45:12.162Z,2.57
2018-04-19T21:50:15.432Z,2.80
2018-04-19T21:55:19.486Z,2.37
2018-04-19T22:00:22.756Z,2.67
2018-04-19T22:50:16.571Z,2.40
2018-04-19T22:55:19.857Z,2.63
2018-04-19T23:00:24.625Z,2.47
2018-04-19T23:05:27.967Z,2.53
2018-04-19T23:10:31.217Z,2.23
2018-04-19T23:15:34.482Z,2.57
2018-04-19T23:20:37.756Z,2.67
2018-04-19T23:25:41.015Z,2.63
2018-04-19T23:30:44.291Z,3.30
2018-04-19T23:35:47.564Z,3.10
2018-04-19T23:40:50.850Z,2.20
2018-04-19T23:45:54.112Z,2.80
2018-04-19T23:50:57.424Z,2.43
2018-04-19T23:56:00.752Z,3.20
